createdAt,value
2022-10-19T00:02:23.210Z,70.70
2022-10-19T00:04:49.909Z,70.70
2022-10-19T00:07:16.570Z,70.70
2022-10-19T00:09:44.370Z,70.60
2022-10-19T00:12:12.439Z,71.80
2022-10-19T00:14:39.328Z,70.80
2022-10-19T00:17:06.050Z,71.20
2022-10-19T00:19:32.743Z,70.90
2022-10-19T00:21:59.388Z,70.80
2022-10-19T00:24:26.094Z,70.80
2022-10-19T00:26:52.772Z,70.90
2022-10-19T00:29:19.461Z,70.70
2022-10-19T00:31:46.213Z,70.70
2022-10-19T00:34:13.012Z,70.90
2022-10-19T00:36:40.668Z,70.70
2022-10-19T00:39:12.362Z,71.50
2022-10-19T00:41:39.342Z,72.60
2022-10-19T00:44:11.853Z,71.00
2022-10-19T00:46:40.877Z,72.70
2022-10-19T00:49:10.891Z,72.10
2022-10-19T00:51:40.802Z,70.90
2022-10-19T00:54:09.126Z,72.10
2022-10-19T00:56:38.035Z,71.90
2022-10-19T00:59:05.516Z,71.70
2022-10-19T01:01:33.931Z,71.40
2022-10-19T01:04:01.453Z,72.20
2022-10-19T01:06:28.573Z,72.10
2022-10-19T01:08:55.364Z,71.80
2022-10-19T01:11:55.485Z,71.50
2022-10-19T01:14:24.981Z,73.30
2022-10-19T01:17:14.751Z,70.70
2022-10-19T01:19:49.970Z,73.70
2022-10-19T01:22:31.654Z,72.90
2022-10-19T01:25:24.514Z,73.00
2022-10-19T01:27:57.512Z,73.70
2022-10-19T01:30:45.074Z,73.30
2022-10-19T01:33:26.186Z,72.70
2022-10-19T01:36:18.196Z,72.70
2022-10-19T01:39:05.950Z,72.50
2022-10-19T01:41:55.236Z,72.80
2022-10-19T01:44:50.455Z,72.60
2022-10-19T01:47:22.656Z,73.00
2022-10-19T01:49:59.215Z,72.70
2022-10-19T01:52:27.633Z,73.30
2022-10-19T01:54:58.352Z,72.80
2022-10-19T01:57:36.793Z,72.90
2022-10-19T02:00:07.575Z,73.50
2022-10-19T02:02:45.941Z,73.00
2022-10-19T02:05:15.425Z,73.20
2022-10-19T02:07:46.310Z,72.60
2022-10-19T02:12:45.488Z,71.50
2022-10-19T02:15:17.181Z,71.70
2022-10-19T02:17:56.736Z,72.90
2022-10-19T02:20:23.959Z,73.40
2022-10-19T02:22:50.907Z,72.00
2022-10-19T02:25:17.782Z,71.90
2022-10-19T02:27:45.046Z,71.50
2022-10-19T02:30:14.890Z,72.00
2022-10-19T02:32:42.915Z,72.70
2022-10-19T02:35:12.234Z,72.00
2022-10-19T02:37:40.141Z,72.40
2022-10-19T02:40:08.082Z,71.60
2022-10-19T02:42:47.958Z,72.10
2022-10-19T02:45:19.769Z,72.70
2022-10-19T02:47:54.573Z,73.30
2022-10-19T02:50:22.264Z,73.30
2022-10-19T02:52:48.964Z,72.10
2022-10-19T02:55:15.660Z,71.50
2022-10-19T02:57:42.374Z,71.40
2022-10-19T03:00:09.813Z,71.60
2022-10-19T03:02:36.504Z,72.30
2022-10-19T03:05:04.507Z,71.80
2022-10-19T03:07:31.538Z,72.70
2022-10-19T03:09:58.451Z,71.90
2022-10-19T03:12:25.132Z,71.90
2022-10-19T03:14:52.041Z,71.70
2022-10-19T03:17:18.777Z,71.60
2022-10-19T03:19:45.448Z,72.70
2022-10-19T03:22:14.053Z,71.80
2022-10-19T03:24:40.755Z,72.90
2022-10-19T03:27:07.401Z,71.70
2022-10-19T03:29:34.206Z,71.70
2022-10-19T03:32:00.849Z,71.70
2022-10-19T03:34:27.501Z,71.70
2022-10-19T03:36:54.197Z,71.70
2022-10-19T03:39:20.877Z,71.70
2022-10-19T03:41:47.585Z,71.60
2022-10-19T03:44:14.286Z,71.60
2022-10-19T03:46:41.186Z,71.60
2022-10-19T03:49:09.233Z,71.70
2022-10-19T03:51:36.814Z,72.50
2022-10-19T03:54:06.505Z,72.20
2022-10-19T03:56:34.666Z,72.90
2022-10-19T03:59:02.955Z,72.30
2022-10-19T04:01:38.767Z,72.60
2022-10-19T04:04:10.325Z,73.60
2022-10-19T04:06:39.311Z,73.50
2022-10-19T04:09:08.105Z,72.90
2022-10-19T04:11:35.573Z,72.90
2022-10-19T04:14:02.667Z,72.80
2022-10-19T04:16:30.793Z,72.50
2022-10-19T04:21:54.228Z,73.50
2022-10-19T04:24:21.036Z,71.50
2022-10-19T04:26:52.067Z,72.10
2022-10-19T04:29:27.952Z,73.40
2022-10-19T04:31:56.736Z,73.30
2022-10-19T04:34:24.106Z,72.20
2022-10-19T04:36:50.863Z,72.20
2022-10-19T04:39:17.635Z,72.20
2022-10-19T04:41:44.281Z,72.20
2022-10-19T04:44:11.047Z,71.90
2022-10-19T04:46:38.469Z,72.00
2022-10-19T04:49:06.692Z,72.20
2022-10-19T04:51:33.952Z,72.30
2022-10-19T04:54:01.786Z,73.30
2022-10-19T04:56:29.042Z,72.40
2022-10-19T04:58:57.399Z,72.30
2022-10-19T05:01:25.453Z,73.10
2022-10-19T05:04:00.465Z,72.80
2022-10-19T05:06:28.010Z,73.90
2022-10-19T05:08:54.959Z,72.30
2022-10-19T05:11:21.988Z,72.20
2022-10-19T05:13:48.769Z,72.30
2022-10-19T05:16:18.873Z,72.40
2022-10-19T05:18:53.551Z,73.70
2022-10-19T05:21:21.733Z,73.80
2022-10-19T05:23:52.215Z,72.40
2022-10-19T05:26:21.157Z,73.80
2022-10-19T05:28:49.395Z,73.30
2022-10-19T05:31:19.320Z,73.20
2022-10-19T05:33:46.586Z,73.60
2022-10-19T05:36:18.800Z,72.40
2022-10-19T05:38:47.337Z,72.90
2022-10-19T05:41:14.992Z,73.20
2022-10-19T05:43:42.449Z,72.70
2022-10-19T05:46:13.140Z,72.70
2022-10-19T05:48:40.666Z,73.60
2022-10-19T05:51:10.356Z,73.10
2022-10-19T05:53:40.017Z,73.60
2022-10-19T05:56:09.239Z,72.40
2022-10-19T05:58:36.264Z,73.70
2022-10-19T06:01:03.157Z,72.80
2022-10-19T06:03:30.241Z,72.50
2022-10-19T06:05:57.489Z,72.40
2022-10-19T06:08:25.054Z,72.20
2022-10-19T06:10:51.913Z,73.00
2022-10-19T06:13:19.542Z,72.40
2022-10-19T06:15:50.793Z,72.90
2022-10-19T06:18:17.470Z,75.10
2022-10-19T06:20:44.263Z,72.20
2022-10-19T06:23:10.970Z,72.30
2022-10-19T06:25:37.610Z,72.20
2022-10-19T06:28:04.703Z,72.20
2022-10-19T06:30:31.391Z,72.40
2022-10-19T06:32:59.390Z,72.30
2022-10-19T06:35:26.176Z,73.40
2022-10-19T06:37:52.822Z,72.30
2022-10-19T06:40:19.532Z,72.50
2022-10-19T06:42:46.223Z,72.50
2022-10-19T06:45:12.910Z,72.40
2022-10-19T06:47:39.676Z,72.30
2022-10-19T06:50:07.445Z,72.40
2022-10-19T06:52:35.714Z,73.30
2022-10-19T06:55:02.963Z,73.40
2022-10-19T06:57:29.758Z,72.40
2022-10-19T06:59:56.545Z,72.60
2022-10-19T07:02:23.235Z,72.50
2022-10-19T07:04:49.945Z,72.60
2022-10-19T07:07:16.675Z,72.60
2022-10-19T07:09:43.348Z,72.60
2022-10-19T07:12:10.815Z,72.40
2022-10-19T07:14:39.570Z,72.30
2022-10-19T07:17:07.569Z,72.40
2022-10-19T07:19:34.820Z,73.00
2022-10-19T07:22:01.764Z,72.00
2022-10-19T07:24:28.458Z,72.00
2022-10-19T07:26:55.138Z,72.00
2022-10-19T07:29:22.313Z,72.20
2022-10-19T07:31:49.032Z,72.40
2022-10-19T07:34:16.455Z,72.00
2022-10-19T07:36:47.897Z,72.70
2022-10-19T07:39:17.033Z,73.70
2022-10-19T07:41:44.214Z,73.10
2022-10-19T07:44:14.796Z,72.90
2022-10-19T07:46:42.621Z,72.90
2022-10-19T07:49:14.198Z,72.40
2022-10-19T07:51:41.109Z,73.90
2022-10-19T07:54:08.643Z,72.90
2022-10-19T07:56:35.652Z,73.10
2022-10-19T07:59:02.770Z,72.80
2022-10-19T08:01:32.687Z,72.30
2022-10-19T08:06:47.067Z,72.60
2022-10-19T08:09:33.428Z,72.10
2022-10-19T08:12:01.016Z,72.50
2022-10-19T08:14:28.222Z,72.00
2022-10-19T08:16:54.895Z,72.70
2022-10-19T08:19:22.603Z,72.20
2022-10-19T08:21:49.516Z,72.50
2022-10-19T08:24:18.113Z,72.20
2022-10-19T08:26:44.942Z,73.50
2022-10-19T08:29:21.605Z,72.00
2022-10-19T08:31:48.996Z,73.90
2022-10-19T08:34:16.406Z,72.70
2022-10-19T08:36:43.346Z,72.20
2022-10-19T08:39:12.568Z,71.30
2022-10-19T08:42:00.549Z,72.00
2022-10-19T08:44:35.746Z,73.20
2022-10-19T08:47:08.760Z,72.30
2022-10-19T08:49:36.391Z,70.00
2022-10-19T08:52:11.605Z,70.80
2022-10-19T08:54:56.749Z,72.00
2022-10-19T08:57:53.473Z,71.40
2022-10-19T09:00:48.879Z,71.90
2022-10-19T09:03:55.075Z,71.40
2022-10-19T09:07:00.099Z,71.20
2022-10-19T09:09:30.794Z,71.20
2022-10-19T09:12:05.346Z,70.60
2022-10-19T09:14:51.840Z,70.40
2022-10-19T09:17:18.569Z,70.40
2022-10-19T09:19:45.562Z,69.80
2022-10-19T09:22:37.299Z,69.10
2022-10-19T09:25:17.522Z,70.20
2022-10-19T09:27:47.773Z,70.10
2022-10-19T09:30:20.950Z,70.00
2022-10-19T09:32:59.382Z,70.30
2022-10-19T09:35:33.809Z,69.10
2022-10-19T09:38:00.890Z,67.70
2022-10-19T09:40:30.136Z,68.30
2022-10-19T09:42:58.264Z,69.00
2022-10-19T09:45:57.288Z,68.10
2022-10-19T09:48:33.232Z,69.10
2022-10-19T09:51:02.101Z,68.40
2022-10-19T09:53:30.090Z,67.80
2022-10-19T09:56:06.558Z,67.70
2022-10-19T09:58:34.586Z,68.00
2022-10-19T10:01:03.270Z,67.10
2022-10-19T10:03:31.011Z,67.40
2022-10-19T10:06:16.087Z,65.90
2022-10-19T10:08:57.966Z,66.90
2022-10-19T10:11:34.642Z,66.30
2022-10-19T10:14:19.967Z,66.00
2022-10-19T10:16:47.381Z,65.50
2022-10-19T10:19:16.971Z,64.00
2022-10-19T10:21:55.618Z,65.20
2022-10-19T10:24:28.316Z,64.60
2022-10-19T10:26:58.730Z,63.70
2022-10-19T10:29:29.384Z,64.00
2022-10-19T10:32:00.267Z,62.00
2022-10-19T10:35:03.666Z,63.70
2022-10-19T10:37:42.149Z,63.40
2022-10-19T10:40:23.775Z,63.80
2022-10-19T10:42:53.676Z,63.80
2022-10-19T10:45:29.370Z,62.80
2022-10-19T10:47:57.859Z,63.00
2022-10-19T10:50:30.515Z,62.00
2022-10-19T10:53:03.201Z,62.10
2022-10-19T10:55:31.797Z,62.30
2022-10-19T10:58:07.442Z,61.70
2022-10-19T11:00:35.526Z,62.50
2022-10-19T11:03:26.022Z,60.60
2022-10-19T11:06:02.854Z,61.60
2022-10-19T11:09:11.283Z,62.00
2022-10-19T11:11:45.500Z,61.60
2022-10-19T11:14:33.929Z,61.80
2022-10-19T11:17:05.978Z,61.70
2022-10-19T11:19:59.116Z,61.20
2022-10-19T11:22:52.623Z,61.70
2022-10-19T11:25:26.030Z,61.40
2022-10-19T11:28:08.369Z,58.80
2022-10-19T11:30:50.746Z,60.90
2022-10-19T11:33:40.732Z,61.40
2022-10-19T11:36:51.055Z,58.30
2022-10-19T11:39:41.086Z,60.10
2022-10-19T11:42:26.515Z,60.00
2022-10-19T11:45:11.957Z,59.30
2022-10-19T11:48:11.944Z,60.00
2022-10-19T11:50:54.053Z,59.10
2022-10-19T11:53:50.403Z,58.90
2022-10-19T11:56:44.764Z,59.50
2022-10-19T11:59:34.786Z,58.50
2022-10-19T12:02:04.321Z,57.70
2022-10-19T12:04:55.798Z,55.70
2022-10-19T12:07:28.334Z,58.00
2022-10-19T12:10:18.938Z,55.50
2022-10-19T12:13:00.956Z,57.50
2022-10-19T12:15:50.700Z,57.20
2022-10-19T12:18:41.269Z,56.30
2022-10-19T12:21:25.869Z,56.30
2022-10-19T12:23:54.214Z,56.80
2022-10-19T12:26:22.642Z,55.80
2022-10-19T12:28:55.554Z,55.90
2022-10-19T12:31:24.778Z,55.60
2022-10-19T12:34:03.321Z,55.20
2022-10-19T12:36:51.826Z,54.60
2022-10-19T12:39:24.580Z,55.60
2022-10-19T12:42:17.501Z,55.40
2022-10-19T12:44:58.791Z,55.20
2022-10-19T12:47:25.970Z,54.60
2022-10-19T12:49:55.519Z,52.90
2022-10-19T12:52:52.174Z,53.10
2022-10-19T12:55:18.776Z,53.50
2022-10-19T12:57:56.427Z,52.80
2022-10-19T13:00:26.149Z,53.40
2022-10-19T13:03:01.776Z,52.70
2022-10-19T13:05:30.199Z,52.80
2022-10-19T13:07:58.104Z,51.80
2022-10-19T13:10:27.024Z,51.20
2022-10-19T13:12:54.858Z,51.60
2022-10-19T13:15:36.525Z,51.10
2022-10-19T13:18:11.517Z,52.20
2022-10-19T13:20:38.162Z,51.30
2022-10-19T13:23:04.801Z,50.70
2022-10-19T13:25:35.204Z,50.40
2022-10-19T13:28:09.119Z,50.40
2022-10-19T13:30:35.901Z,51.60
2022-10-19T13:33:27.503Z,50.00
2022-10-19T13:36:14.516Z,51.00
2022-10-19T13:38:45.642Z,51.00
2022-10-19T13:41:25.798Z,50.50
2022-10-19T13:44:04.800Z,50.30
2022-10-19T13:46:31.402Z,51.40
2022-10-19T13:49:39.372Z,50.20
2022-10-19T13:52:28.333Z,51.90
2022-10-19T13:55:12.961Z,52.10
2022-10-19T13:58:13.966Z,51.20
2022-10-19T14:01:14.633Z,52.80
2022-10-19T14:04:09.878Z,52.90
2022-10-19T14:06:47.297Z,52.90
2022-10-19T14:09:51.581Z,52.30
2022-10-19T14:12:26.689Z,52.60
2022-10-19T14:14:53.829Z,52.20
2022-10-19T14:17:33.819Z,51.00
2022-10-19T14:20:01.688Z,52.30
2022-10-19T14:22:34.388Z,51.00
2022-10-19T14:25:02.359Z,52.80
2022-10-19T14:27:30.354Z,52.20
2022-10-19T14:29:57.557Z,52.40
2022-10-19T14:32:29.817Z,52.00
2022-10-19T14:37:37.394Z,52.70
2022-10-19T14:40:32.136Z,52.50
2022-10-19T14:43:00.946Z,53.80
2022-10-19T14:45:30.657Z,53.40
2022-10-19T14:48:05.725Z,53.50
2022-10-19T14:50:43.248Z,53.40
2022-10-19T14:53:46.374Z,54.00
2022-10-19T14:56:23.463Z,55.10
2022-10-19T14:59:03.113Z,54.30
2022-10-19T15:01:30.350Z,54.00
2022-10-19T15:03:57.274Z,53.40
2022-10-19T15:06:30.589Z,53.40
2022-10-19T15:09:04.505Z,54.20
2022-10-19T15:11:44.170Z,54.40
2022-10-19T15:14:21.981Z,54.20
2022-10-19T15:16:54.822Z,54.00
2022-10-19T15:19:33.589Z,54.90
2022-10-19T15:22:13.417Z,55.10
2022-10-19T15:25:00.377Z,54.80
2022-10-19T15:27:38.540Z,55.00
2022-10-19T15:30:07.413Z,55.50
2022-10-19T15:32:37.043Z,54.90
2022-10-19T15:35:26.818Z,54.90
2022-10-19T15:38:05.130Z,55.50
2022-10-19T15:40:37.904Z,56.20
2022-10-19T15:43:35.229Z,56.50
2022-10-19T15:46:12.611Z,56.70
2022-10-19T15:48:42.878Z,56.40
2022-10-19T15:51:29.502Z,56.90
2022-10-19T15:53:57.409Z,58.20
2022-10-19T15:56:26.576Z,56.80
2022-10-19T15:58:55.226Z,57.40
2022-10-19T16:01:24.483Z,57.70
2022-10-19T16:03:51.474Z,57.90
2022-10-19T16:06:19.975Z,57.40
2022-10-19T16:08:47.009Z,58.10
2022-10-19T16:11:18.044Z,57.60
2022-10-19T16:13:44.958Z,58.20
2022-10-19T16:16:18.245Z,58.00
2022-10-19T16:18:44.908Z,59.50
2022-10-19T16:21:11.547Z,58.40
2022-10-19T16:23:41.863Z,58.80
2022-10-19T16:26:09.146Z,59.00
2022-10-19T16:28:36.221Z,59.20
2022-10-19T16:31:02.930Z,59.70
2022-10-19T16:33:29.596Z,59.70
2022-10-19T16:35:56.278Z,60.10
2022-10-19T16:38:22.961Z,59.60
2022-10-19T16:40:49.624Z,59.80
2022-10-19T16:43:16.335Z,59.90
2022-10-19T16:45:43.593Z,60.20
2022-10-19T16:48:13.200Z,60.70
2022-10-19T16:50:39.954Z,61.70
2022-10-19T16:53:12.573Z,60.40
2022-10-19T16:55:40.503Z,61.40
2022-10-19T16:58:07.323Z,61.60
2022-10-19T17:00:35.223Z,60.80
2022-10-19T17:03:01.993Z,61.10
2022-10-19T17:05:28.744Z,61.10
2022-10-19T17:07:55.397Z,61.50
2022-10-19T17:10:22.418Z,61.50
2022-10-19T17:12:49.113Z,61.60
2022-10-19T17:15:41.529Z,61.50
2022-10-19T17:18:02.681Z,61.60
2022-10-19T17:20:29.338Z,61.70
2022-10-19T17:22:56.019Z,61.40
2022-10-19T17:25:22.775Z,61.70
2022-10-19T17:27:52.492Z,61.50
2022-10-19T17:30:19.179Z,63.50
2022-10-19T17:32:45.854Z,61.90
2022-10-19T17:35:12.551Z,62.80
2022-10-19T17:37:39.213Z,61.80
2022-10-19T17:40:06.796Z,62.10
2022-10-19T17:42:36.402Z,62.40
2022-10-19T17:45:03.462Z,62.10
2022-10-19T17:47:30.549Z,62.20
2022-10-19T17:49:57.239Z,62.20
2022-10-19T17:52:23.946Z,62.40
2022-10-19T17:55:11.301Z,62.40
2022-10-19T17:57:37.798Z,63.30
2022-10-19T18:00:07.125Z,62.30
2022-10-19T18:02:39.809Z,63.10
2022-10-19T18:05:06.940Z,62.50
2022-10-19T18:07:33.864Z,62.70
2022-10-19T18:10:00.713Z,62.40
2022-10-19T18:12:27.393Z,62.90
2022-10-19T18:14:54.125Z,62.20
2022-10-19T18:17:24.105Z,62.30
2022-10-19T18:19:53.660Z,62.20
2022-10-19T18:22:21.773Z,62.00
2022-10-19T18:24:49.461Z,62.20
2022-10-19T18:27:16.178Z,62.40
2022-10-19T18:29:42.990Z,62.50
2022-10-19T18:32:10.963Z,62.70
2022-10-19T18:34:38.359Z,62.50
2022-10-19T18:37:05.542Z,62.30
2022-10-19T18:39:32.205Z,62.70
2022-10-19T18:41:59.057Z,62.70
2022-10-19T18:44:27.859Z,63.10
2022-10-19T18:46:56.572Z,63.10
2022-10-19T18:49:24.098Z,63.30
2022-10-19T18:51:54.277Z,63.20
2022-10-19T18:54:22.651Z,63.20
2022-10-19T18:56:49.396Z,63.30
2022-10-19T18:59:16.296Z,63.30
2022-10-19T19:01:43.147Z,63.30
2022-10-19T19:04:10.450Z,63.30
2022-10-19T19:06:38.268Z,63.80
2022-10-19T19:09:10.852Z,64.00
2022-10-19T19:11:40.731Z,65.20
2022-10-19T19:14:18.334Z,64.60
2022-10-19T19:16:45.519Z,65.60
2022-10-19T19:19:15.020Z,64.10
2022-10-19T19:21:44.074Z,64.50
2022-10-19T19:24:17.119Z,64.30
2022-10-19T19:26:48.358Z,64.30
2022-10-19T19:29:15.882Z,65.10
2022-10-19T19:31:42.625Z,63.80
2022-10-19T19:34:09.730Z,63.90
2022-10-19T19:36:38.054Z,63.90
2022-10-19T19:39:05.509Z,65.10
2022-10-19T19:41:33.998Z,64.50
2022-10-19T19:44:00.777Z,64.00
2022-10-19T19:46:27.650Z,64.20
2022-10-19T19:49:00.305Z,64.40
2022-10-19T19:51:28.012Z,66.20
2022-10-19T19:53:54.935Z,65.60
2022-10-19T19:56:21.719Z,63.70
2022-10-19T19:58:48.476Z,64.20
2022-10-19T20:01:18.416Z,64.30
2022-10-19T20:03:46.031Z,65.60
2022-10-19T20:06:14.257Z,65.00
2022-10-19T20:08:41.093Z,65.20
2022-10-19T20:11:10.983Z,64.50
2022-10-19T20:13:38.291Z,65.90
2022-10-19T20:16:13.330Z,64.80
2022-10-19T20:18:43.327Z,66.70
2022-10-19T20:21:10.104Z,65.90
2022-10-19T20:23:36.809Z,65.00
2022-10-19T20:26:03.509Z,65.00
2022-10-19T20:28:33.425Z,65.20
2022-10-19T20:31:06.065Z,66.60
2022-10-19T20:33:35.433Z,67.00
2022-10-19T20:36:06.397Z,67.10
2022-10-19T20:38:34.745Z,67.20
2022-10-19T20:41:09.555Z,67.20
2022-10-19T20:43:37.552Z,67.40
2022-10-19T20:46:28.422Z,66.50
2022-10-19T20:48:56.933Z,67.90
2022-10-19T20:51:31.736Z,66.60
2022-10-19T20:54:01.509Z,66.60
2022-10-19T20:56:31.765Z,66.80
2022-10-19T20:59:00.796Z,66.90
2022-10-19T21:01:30.019Z,66.80
2022-10-19T21:04:00.468Z,66.80
2022-10-19T21:06:29.935Z,67.10
2022-10-19T21:08:57.485Z,66.80
2022-10-19T21:11:33.371Z,66.00
2022-10-19T21:14:08.865Z,67.90
2022-10-19T21:16:37.560Z,66.60
2022-10-19T21:19:06.360Z,66.20
2022-10-19T21:21:35.358Z,67.40
2022-10-19T21:24:08.757Z,67.30
2022-10-19T21:26:36.675Z,67.50
2022-10-19T21:29:05.050Z,66.80
2022-10-19T21:31:31.863Z,67.10
2022-10-19T21:33:58.600Z,66.50
2022-10-19T21:36:25.259Z,66.30
2022-10-19T21:38:51.982Z,66.40
2022-10-19T21:41:23.834Z,66.50
2022-10-19T21:43:53.360Z,67.70
2022-10-19T21:46:21.609Z,66.70
2022-10-19T21:48:49.034Z,67.80
2022-10-19T21:51:36.884Z,67.30
2022-10-19T21:56:38.764Z,69.20
2022-10-19T21:59:05.534Z,67.70
2022-10-19T22:01:38.660Z,67.40
2022-10-19T22:04:12.015Z,66.70
2022-10-19T22:06:39.233Z,68.00
2022-10-19T22:09:07.962Z,67.10
2022-10-19T22:11:34.824Z,68.10
2022-10-19T22:14:02.923Z,67.40
2022-10-19T22:16:30.522Z,68.00
2022-10-19T22:18:58.205Z,67.80
2022-10-19T22:21:28.621Z,68.10
2022-10-19T22:23:58.321Z,68.30
2022-10-19T22:26:28.322Z,68.30
2022-10-19T22:28:56.859Z,68.70
2022-10-19T22:31:24.658Z,68.00
2022-10-19T22:33:51.368Z,68.40
2022-10-19T22:36:18.341Z,67.90
2022-10-19T22:38:45.056Z,67.90
2022-10-19T22:42:04.680Z,68.20
2022-10-19T22:44:32.771Z,70.30
2022-10-19T22:46:59.451Z,69.10
2022-10-19T22:49:26.226Z,68.10
2022-10-19T22:51:52.965Z,68.20
2022-10-19T22:54:19.638Z,68.20
2022-10-19T22:56:46.324Z,68.30
2022-10-19T22:59:13.025Z,68.40
2022-10-19T23:01:39.819Z,68.50
2022-10-19T23:04:06.657Z,68.50
2022-10-19T23:06:33.460Z,68.70
2022-10-19T23:09:00.421Z,68.70
2022-10-19T23:11:27.294Z,68.50
2022-10-19T23:13:54.021Z,68.40
2022-10-19T23:16:20.757Z,68.20
2022-10-19T23:18:47.490Z,68.30
2022-10-19T23:21:15.111Z,68.30
2022-10-19T23:23:42.404Z,69.00
2022-10-19T23:26:10.585Z,68.50
2022-10-19T23:28:40.215Z,69.60
2022-10-19T23:31:10.233Z,69.40
2022-10-19T23:33:37.363Z,69.60
2022-10-19T23:36:16.682Z,68.90
2022-10-19T23:38:44.883Z,70.10
2022-10-19T23:41:12.175Z,69.40
2022-10-19T23:43:39.695Z,68.60
2022-10-19T23:46:07.308Z,68.60
2022-10-19T23:48:34.585Z,68.80
2022-10-19T23:51:13.517Z,68.50
2022-10-19T23:53:43.152Z,70.80
2022-10-19T23:56:19.790Z,69.90
2022-10-19T23:58:47.754Z,69.60
